Time;durP1;ratioP1;P1;durP2;ratioP2;P2;SDS_P1;SDS_P2;PMS_P1;PMS_P2;Temp;Humidity;BMP_temperature;BMP_pressure;BME280_temperature;BME280_humidity;BME280_pressure;Samples;Min_cycle;Max_cycle;Signal;HPM_P1;HPM_P2
2022/09/24 00:01:26;;;;;;;71.83;16.03;;;14.10;99.90;;;;;;5016951;28;20412;-82
2022/09/24 00:04:11;;;;;;;74.10;14.27;;;14.00;99.90;;;;;;5034418;28;20840;-82
2022/09/24 00:06:40;;;;;;;72.87;14.20;;;14.00;99.90;;;;;;5037492;28;20388;-82
2022/09/24 00:09:06;;;;;;;73.30;13.30;;;14.00;99.90;;;;;;5038034;28;20428;-82
2022/09/24 00:11:32;;;;;;;73.07;13.97;;;14.00;99.90;;;;;;5020315;28;20458;-82
2022/09/24 00:13:58;;;;;;;73.87;20.20;;;14.00;99.90;;;;;;5038167;28;20257;-82
2022/09/24 00:16:26;;;;;;;74.37;17.70;;;13.90;99.90;;;;;;5037665;28;20482;-82
2022/09/24 00:18:52;;;;;;;73.20;20.40;;;13.70;99.90;;;;;;5037524;28;20507;-82
2022/09/24 00:21:24;;;;;;;78.70;17.97;;;13.70;99.90;;;;;;5019951;28;20487;-82
2022/09/24 00:23:52;;;;;;;73.27;15.53;;;13.80;99.90;;;;;;5037774;28;20768;-82
2022/09/24 00:29:04;;;;;;;73.87;18.07;;;13.70;99.90;;;;;;5037391;28;20430;-82
2022/09/24 00:31:30;;;;;;;72.90;17.07;;;13.70;99.90;;;;;;5037477;28;20412;-82
2022/09/24 00:33:57;;;;;;;71.17;15.03;;;13.70;99.90;;;;;;5037753;28;20764;-82
2022/09/24 00:36:26;;;;;;;71.37;16.00;;;13.70;99.90;;;;;;5019458;28;21048;-82
2022/09/24 00:38:54;;;;;;;72.37;18.30;;;13.70;99.90;;;;;;5037494;28;20430;-82
2022/09/24 00:41:23;;;;;;;76.60;17.30;;;13.50;99.90;;;;;;5019683;28;20438;-82
2022/09/24 00:43:49;;;;;;;73.13;17.50;;;13.50;99.90;;;;;;5019759;28;20400;-82
2022/09/24 00:46:34;;;;;;;72.17;15.70;;;13.50;99.90;;;;;;5037328;28;20423;-82
2022/09/24 00:49:09;;;;;;;72.87;16.93;;;13.60;99.90;;;;;;5037434;28;20959;-82
2022/09/24 00:51:35;;;;;;;73.23;14.27;;;13.60;99.90;;;;;;5019945;28;20403;-82
2022/09/24 00:54:10;;;;;;;73.97;13.97;;;13.60;99.90;;;;;;5037137;28;20450;-82
2022/09/24 00:56:38;;;;;;;70.47;15.90;;;13.50;99.90;;;;;;5037530;28;20431;-82
2022/09/24 00:59:06;;;;;;;70.90;14.13;;;13.40;99.90;;;;;;5037510;28;20424;-82
2022/09/24 01:01:32;;;;;;;72.77;16.03;;;13.30;99.90;;;;;;5037503;28;20415;-82
2022/09/24 01:03:59;;;;;;;73.40;16.83;;;13.30;99.90;;;;;;5019381;28;20967;-82
2022/09/24 01:06:25;;;;;;;73.53;16.37;;;13.30;99.90;;;;;;5019655;28;20584;-82
2022/09/24 01:08:53;;;;;;;70.80;17.40;;;13.20;99.90;;;;;;5037107;28;20436;-82
2022/09/24 01:11:25;;;;;;;74.40;22.60;;;13.10;99.90;;;;;;5037064;28;20404;-81
2022/09/24 01:14:21;;;;;;;74.93;25.10;;;13.10;99.90;;;;;;5037125;28;20416;-82
2022/09/24 01:17:02;;;;;;;72.97;19.60;;;13.10;99.90;;;;;;5036585;28;20443;-82
2022/09/24 01:20:01;;;;;;;79.43;21.57;;;13.10;99.90;;;;;;5037034;28;20380;-82
2022/09/24 01:22:54;;;;;;;75.47;21.40;;;13.10;99.90;;;;;;5019167;28;20420;-82
2022/09/24 01:25:35;;;;;;;72.97;18.97;;;13.10;99.90;;;;;;5036670;28;20420;-82
2022/09/24 01:28:38;;;;;;;78.30;23.70;;;13.00;99.90;;;;;;5036527;28;20424;-82
2022/09/24 01:31:15;;;;;;;74.57;22.90;;;12.90;99.90;;;;;;5036633;28;20439;-82
2022/09/24 01:33:43;;;;;;;75.87;24.40;;;12.90;99.90;;;;;;5018706;28;20988;-82
2022/09/24 01:36:14;;;;;;;75.67;24.10;;;12.90;99.90;;;;;;5018506;28;20907;-82
2022/09/24 01:38:43;;;;;;;75.47;23.00;;;12.90;99.90;;;;;;5036149;28;20424;-82
2022/09/24 01:41:11;;;;;;;76.13;25.77;;;12.90;99.90;;;;;;5018231;28;20416;-82
2022/09/24 01:43:38;;;;;;;77.00;26.37;;;12.80;99.90;;;;;;5036598;28;20506;-82
2022/09/24 01:46:05;;;;;;;76.53;27.80;;;12.80;99.90;;;;;;5036313;28;20458;-82
2022/09/24 01:48:33;;;;;;;75.80;27.87;;;12.70;99.90;;;;;;5036456;28;20428;-82
2022/09/24 01:51:22;;;;;;;84.07;30.03;;;12.80;99.90;;;;;;5035955;28;20834;-82
2022/09/24 01:53:51;;;;;;;74.20;22.27;;;12.80;99.90;;;;;;5035669;28;20439;-82
2022/09/24 01:56:28;;;;;;;74.77;26.30;;;12.90;99.90;;;;;;5035800;28;20811;-82
2022/09/24 01:58:57;;;;;;;80.50;27.63;;;12.80;99.90;;;;;;5036202;28;20418;-82
2022/09/24 02:01:29;;;;;;;74.97;29.13;;;12.90;99.90;;;;;;5018135;28;20408;-82
2022/09/24 02:04:11;;;;;;;76.97;28.00;;;12.80;99.90;;;;;;5036143;28;20488;-82
2022/09/24 02:06:50;;;;;;;81.83;34.07;;;12.80;99.90;;;;;;5018339;28;20435;-82
2022/09/24 02:09:40;;;;;;;76.60;26.87;;;12.80;99.90;;;;;;5035646;28;20423;-82
2022/09/24 02:12:13;;;;;;;74.27;22.57;;;12.80;99.90;;;;;;5035828;28;20400;-82
2022/09/24 02:14:48;;;;;;;76.20;23.80;;;12.80;99.90;;;;;;5035580;28;20786;-82
2022/09/24 02:17:14;;;;;;;74.40;24.73;;;12.80;99.90;;;;;;5035539;28;20436;-82
2022/09/24 02:19:41;;;;;;;78.37;28.93;;;12.80;99.90;;;;;;5017818;28;20772;-82
2022/09/24 02:22:09;;;;;;;77.47;29.33;;;13.00;99.90;;;;;;5035256;28;20454;-82
2022/09/24 02:24:52;;;;;;;76.47;26.47;;;13.10;99.90;;;;;;5035512;28;20404;-82
2022/09/24 02:27:18;;;;;;;76.10;26.50;;;13.20;99.90;;;;;;5035403;28;20424;-82
2022/09/24 02:29:45;;;;;;;75.67;24.67;;;13.20;99.90;;;;;;5017315;28;20776;-82
2022/09/24 02:32:14;;;;;;;76.20;27.50;;;13.20;99.90;;;;;;5035337;28;20684;-82
2022/09/24 02:34:48;;;;;;;75.80;27.17;;;13.10;99.90;;;;;;5035601;28;20396;-82
2022/09/24 02:37:15;;;;;;;80.20;31.90;;;13.00;99.90;;;;;;5035568;28;20468;-82
2022/09/24 02:39:42;;;;;;;84.33;27.97;;;13.00;99.90;;;;;;5017430;28;20408;-82
2022/09/24 02:42:10;;;;;;;78.70;28.07;;;13.10;99.90;;;;;;5035398;28;20400;-82
2022/09/24 02:44:36;;;;;;;77.10;25.17;;;13.20;99.90;;;;;;5035347;28;20411;-82
2022/09/24 02:47:02;;;;;;;77.60;30.03;;;13.10;99.90;;;;;;5017309;28;20411;-82
2022/09/24 02:49:28;;;;;;;77.97;28.00;;;13.10;99.90;;;;;;5035331;28;20453;-82
2022/09/24 02:51:54;;;;;;;76.07;28.83;;;13.10;99.90;;;;;;5017036;28;20502;-82
2022/09/24 02:54:21;;;;;;;76.00;26.27;;;13.10;99.90;;;;;;5035048;28;20177;-82
2022/09/24 02:56:47;;;;;;;76.00;27.47;;;13.10;99.90;;;;;;5035205;28;20454;-82
2022/09/24 02:59:13;;;;;;;76.90;28.67;;;13.00;99.90;;;;;;5034889;28;20416;-82
2022/09/24 03:01:39;;;;;;;76.17;24.77;;;13.10;99.90;;;;;;5034500;28;20407;-82
2022/09/24 03:04:05;;;;;;;78.33;30.27;;;13.10;99.90;;;;;;5017481;28;20919;-82
2022/09/24 03:06:35;;;;;;;77.13;23.50;;;13.00;99.90;;;;;;5016950;28;20469;-82
2022/09/24 03:09:02;;;;;;;77.67;28.57;;;13.00;99.90;;;;;;5034954;28;20438;-82
2022/09/24 03:11:30;;;;;;;78.30;28.37;;;12.90;99.90;;;;;;5035128;28;20408;-82
2022/09/24 03:13:56;;;;;;;75.47;23.83;;;12.90;99.90;;;;;;5034435;28;20415;-81
2022/09/24 03:16:22;;;;;;;75.17;23.83;;;12.80;99.90;;;;;;5034857;28;20455;-82
2022/09/24 03:18:48;;;;;;;74.80;21.70;;;12.80;99.90;;;;;;5017067;28;20461;-82
2022/09/24 03:21:16;;;;;;;74.27;25.97;;;12.70;99.90;;;;;;5017028;28;20942;-82
2022/09/24 03:23:42;;;;;;;75.73;25.53;;;12.60;99.90;;;;;;5034884;28;20462;-82
2022/09/24 03:26:08;;;;;;;76.93;27.50;;;12.50;99.90;;;;;;5034529;28;20407;-82
2022/09/24 03:28:34;;;;;;;76.60;24.63;;;12.60;99.90;;;;;;5016698;28;20434;-82
2022/09/24 03:31:00;;;;;;;74.30;23.77;;;12.50;99.90;;;;;;5034656;28;20498;-82
2022/09/24 03:33:40;;;;;;;77.73;28.00;;;12.50;99.90;;;;;;5017223;28;20174;-82
2022/09/24 03:36:26;;;;;;;75.53;22.40;;;12.60;99.90;;;;;;5034511;28;20384;-82
2022/09/24 03:38:55;;;;;;;76.60;22.03;;;12.60;99.90;;;;;;5034528;28;20201;-82
2022/09/24 03:41:21;;;;;;;77.57;19.20;;;12.70;99.90;;;;;;5020428;28;20409;-82
2022/09/24 03:43:47;;;;;;;76.10;19.83;;;12.70;99.90;;;;;;5038977;28;20499;-82
2022/09/24 03:46:15;;;;;;;75.13;20.73;;;12.80;99.90;;;;;;5038311;28;20197;-82
2022/09/24 03:48:42;;;;;;;78.30;22.52;;;12.80;99.90;;;;;;5038591;28;20607;-82
2022/09/24 03:51:11;;;;;;;73.50;21.70;;;12.90;99.90;;;;;;5020943;28;20173;-82
2022/09/24 03:53:37;;;;;;;78.00;22.33;;;12.90;99.90;;;;;;5038025;28;20264;-82
2022/09/24 03:56:04;;;;;;;76.40;23.23;;;12.80;99.90;;;;;;5038302;28;20430;-82
2022/09/24 03:58:33;;;;;;;76.47;20.70;;;12.80;99.90;;;;;;5038568;28;20506;-82
2022/09/24 04:00:59;;;;;;;77.50;22.60;;;12.90;99.90;;;;;;5038191;28;20403;-82
2022/09/24 04:03:25;;;;;;;76.70;20.07;;;12.90;99.90;;;;;;5038364;28;20400;-82
2022/09/24 04:05:50;;;;;;;78.47;20.60;;;12.90;99.90;;;;;;5038452;28;20169;-82
2022/09/24 04:08:18;;;;;;;78.90;22.00;;;12.90;99.90;;;;;;5020465;28;20450;-82
2022/09/24 04:10:48;;;;;;;76.20;21.42;;;12.90;99.90;;;;;;5038089;28;20685;-82
2022/09/24 04:13:14;;;;;;;77.53;25.25;;;12.90;99.90;;;;;;5038312;28;20165;-82
2022/09/24 04:15:40;;;;;;;77.75;23.50;;;12.90;99.90;;;;;;5020802;28;20169;-82
2022/09/24 04:18:05;;;;;;;78.30;21.07;;;12.80;99.90;;;;;;5019939;28;20566;-82
2022/09/24 04:20:32;;;;;;;75.20;23.97;;;12.80;99.90;;;;;;5038148;28;20660;-82
2022/09/24 04:22:59;;;;;;;75.20;21.10;;;12.80;99.90;;;;;;5038069;28;20244;-82
2022/09/24 04:25:29;;;;;;;76.60;23.63;;;12.80;99.90;;;;;;5038039;28;20396;-82
2022/09/24 04:27:57;;;;;;;74.60;23.42;;;12.80;99.90;;;;;;5019877;28;20431;-82
2022/09/24 04:30:24;;;;;;;77.37;28.60;;;12.80;99.90;;;;;;5037799;28;20161;-82
2022/09/24 04:32:50;;;;;;;78.37;36.77;;;12.90;99.90;;;;;;5037489;28;20395;-82
2022/09/24 04:35:18;;;;;;;79.40;36.00;;;12.90;99.90;;;;;;5020318;28;20404;-81
2022/09/24 04:37:44;;;;;;;81.07;38.40;;;12.90;99.90;;;;;;5037407;28;20192;-82
2022/09/24 04:40:11;;;;;;;80.60;35.30;;;12.80;99.90;;;;;;5019511;28;20403;-82
2022/09/24 04:42:38;;;;;;;85.20;39.37;;;12.80;99.90;;;;;;5037754;28;20407;-82
2022/09/24 04:45:08;;;;;;;82.27;40.77;;;12.80;99.90;;;;;;5037362;28;20396;-82
2022/09/24 04:47:39;;;;;;;84.30;42.30;;;12.80;99.90;;;;;;5037821;28;20427;-82
2022/09/24 04:50:06;;;;;;;85.10;36.35;;;12.80;99.90;;;;;;5019685;28;20404;-82
2022/09/24 04:52:32;;;;;;;77.20;31.00;;;12.80;99.90;;;;;;5106728;22;20174;-85
2022/09/24 04:54:58;;;;;;;76.83;25.43;;;12.70;99.90;;;;;;5029960;28;20296;-85
2022/09/24 04:57:25;;;;;;;81.50;30.13;;;12.70;99.90;;;;;;5048689;28;20490;-84
2022/09/24 04:59:51;;;;;;;80.13;31.65;;;12.70;99.90;;;;;;5048383;28;20404;-84
2022/09/24 05:02:17;;;;;;;77.10;29.20;;;12.70;99.90;;;;;;5048721;28;20168;-84
2022/09/24 05:04:43;;;;;;;79.72;31.38;;;12.60;99.90;;;;;;5048674;28;20404;-84
2022/09/24 05:07:10;;;;;;;81.80;36.53;;;12.70;99.90;;;;;;5047916;28;20188;-84
2022/09/24 05:09:36;;;;;;;77.90;28.35;;;12.70;99.90;;;;;;5048203;28;20196;-84
2022/09/24 05:12:02;;;;;;;85.50;24.70;;;12.60;99.90;;;;;;5048882;28;20177;-84
2022/09/24 05:14:28;;;;;;;76.40;26.23;;;12.50;99.90;;;;;;5047903;28;20466;-84
2022/09/24 05:16:53;;;;;;;75.47;28.10;;;12.50;99.90;;;;;;5048477;28;20455;-84
2022/09/24 05:19:19;;;;;;;79.10;31.23;;;12.60;99.90;;;;;;5029699;28;20185;-84
2022/09/24 05:21:45;;;;;;;74.70;25.10;;;12.50;99.90;;;;;;5031123;28;20165;-84
2022/09/24 05:24:11;;;;;;;79.93;26.50;;;12.50;99.90;;;;;;5049671;28;20157;-83
2022/09/24 05:29:26;;;;;;;78.25;22.30;;;12.40;99.90;;;;;;5049322;28;20156;-83
2022/09/24 05:31:52;;;;;;;73.82;19.98;;;12.40;99.90;;;;;;5048288;28;20159;-83
2022/09/24 05:34:18;;;;;;;77.00;21.80;;;12.30;99.90;;;;;;5048109;28;20571;-83
2022/09/24 05:36:44;;;;;;;78.57;26.27;;;12.30;99.90;;;;;;5047384;28;20268;-84
2022/09/24 05:39:11;;;;;;;76.70;24.52;;;12.30;99.90;;;;;;5046420;28;20267;-84
2022/09/24 05:41:37;;;;;;;79.00;27.27;;;12.40;99.90;;;;;;5047279;28;20153;-83
2022/09/24 05:44:04;;;;;;;76.53;23.45;;;12.50;99.90;;;;;;5047896;28;20176;-84
2022/09/24 05:46:30;;;;;;;75.32;23.05;;;12.40;99.90;;;;;;5047592;28;20169;-83
2022/09/24 05:48:56;;;;;;;76.73;20.60;;;12.40;99.90;;;;;;5029646;28;20201;-83
2022/09/24 05:51:21;;;;;;;74.80;23.23;;;12.40;99.90;;;;;;5029379;28;20177;-83
2022/09/24 05:53:49;;;;;;;75.57;21.13;;;12.40;99.90;;;;;;5046357;28;20193;-83
2022/09/24 05:56:15;;;;;;;77.70;22.60;;;12.40;99.90;;;;;;5046179;28;20471;-83
2022/09/24 05:58:40;;;;;;;75.30;21.40;;;12.50;99.90;;;;;;5047657;28;20432;-83
2022/09/24 06:01:06;;;;;;;81.10;23.13;;;12.50;99.90;;;;;;5047280;28;20439;-83
2022/09/24 06:03:31;;;;;;;82.67;21.00;;;12.50;99.90;;;;;;5046464;28;20222;-83
2022/09/24 06:06:00;;;;;;;79.80;18.80;;;12.50;99.90;;;;;;5046720;28;20146;-83
2022/09/24 06:08:28;;;;;;;76.13;19.53;;;12.50;99.90;;;;;;5046642;28;20188;-83
2022/09/24 06:11:02;;;;;;;79.85;22.10;;;12.60;99.90;;;;;;5028431;28;20403;-83
2022/09/24 06:13:28;;;;;;;75.40;19.13;;;12.60;99.90;;;;;;5046311;28;20189;-83
2022/09/24 06:16:08;;;;;;;77.40;16.60;;;12.70;99.90;;;;;;5046285;28;20400;-83
2022/09/24 06:18:39;;;;;;;75.13;22.30;;;12.70;99.90;;;;;;5046190;28;20434;-83
2022/09/24 06:21:07;;;;;;;75.47;17.73;;;12.80;99.90;;;;;;5047159;28;20380;-83
2022/09/24 06:23:34;;;;;;;74.40;20.23;;;12.80;99.90;;;;;;5046516;28;20215;-83
2022/09/24 06:26:00;;;;;;;79.67;22.00;;;12.80;99.90;;;;;;5029359;28;20641;-83
2022/09/24 06:28:26;;;;;;;75.82;18.98;;;12.80;99.90;;;;;;5046789;28;20420;-83
2022/09/24 06:30:52;;;;;;;72.93;17.50;;;12.80;99.90;;;;;;5042874;28;20244;-83
2022/09/24 06:33:19;;;;;;;79.88;20.00;;;12.90;99.90;;;;;;5045147;28;20180;-83
2022/09/24 06:35:45;;;;;;;75.03;19.40;;;12.90;99.90;;;;;;5042730;28;20185;-83
2022/09/24 06:38:16;;;;;;;75.27;23.17;;;12.90;99.90;;;;;;5045804;28;20479;-83
2022/09/24 06:40:49;;;;;;;77.83;24.87;;;12.90;99.90;;;;;;5046252;28;20399;-84
2022/09/24 06:43:16;;;;;;;76.77;23.57;;;13.00;99.90;;;;;;5029046;28;20406;-84
2022/09/24 06:45:43;;;;;;;75.43;21.90;;;13.10;99.90;;;;;;5028806;28;20400;-84
2022/09/24 06:48:11;;;;;;;72.67;18.07;;;13.10;99.90;;;;;;5046184;28;20495;-84
2022/09/24 06:50:40;;;;;;;78.50;24.10;;;13.10;99.90;;;;;;5046804;28;20399;-84
2022/09/24 06:53:06;;;;;;;76.80;26.87;;;13.20;99.90;;;;;;5028709;28;20416;-83
2022/09/24 06:55:33;;;;;;;83.70;39.00;;;13.20;99.90;;;;;;5027687;28;20432;-84
2022/09/24 06:58:04;;;;;;;80.07;36.37;;;13.10;99.90;;;;;;5046636;28;20443;-84
2022/09/24 07:00:30;;;;;;;84.30;38.13;;;13.10;99.90;;;;;;5046564;28;20815;-84
2022/09/24 07:02:56;;;;;;;80.50;32.13;;;13.20;99.90;;;;;;5027789;28;20415;-84
2022/09/24 07:05:22;;;;;;;83.63;38.57;;;13.20;99.90;;;;;;5045615;28;20244;-84
2022/09/24 07:07:47;;;;;;;80.17;36.20;;;13.30;99.90;;;;;;5032093;28;20264;-85
2022/09/24 07:10:13;;;;;;;84.37;42.47;;;13.20;99.90;;;;;;5054778;28;20173;-85
2022/09/24 07:12:40;;;;;;;82.53;46.63;;;13.20;99.90;;;;;;5048723;28;20166;-84
2022/09/24 07:15:07;;;;;;;85.17;45.10;;;13.20;99.90;;;;;;5028824;28;20423;-84
2022/09/24 07:17:33;;;;;;;86.37;43.87;;;13.30;99.90;;;;;;5046589;28;20443;-84
2022/09/24 07:19:59;;;;;;;84.40;46.40;;;13.30;99.90;;;;;;5046443;28;20479;-84
2022/09/24 07:22:25;;;;;;;84.70;42.50;;;13.40;99.90;;;;;;5047060;28;20404;-84
2022/09/24 07:24:51;;;;;;;80.80;42.03;;;13.50;99.90;;;;;;5046973;28;20187;-84
2022/09/24 07:27:20;;;;;;;84.50;40.53;;;13.40;99.90;;;;;;5046818;28;20199;-84
2022/09/24 07:29:46;;;;;;;82.50;42.30;;;13.40;99.90;;;;;;5046545;28;20414;-84
2022/09/24 07:32:12;;;;;;;85.10;43.60;;;13.40;99.90;;;;;;5046744;28;20407;-84
2022/09/24 07:34:37;;;;;;;83.37;42.87;;;13.50;99.90;;;;;;5046638;28;20491;-84
2022/09/24 07:37:03;;;;;;;81.80;39.23;;;13.60;99.90;;;;;;5045712;28;20197;-84
2022/09/24 07:39:29;;;;;;;82.00;36.03;;;13.80;99.90;;;;;;5046093;28;20162;-84
2022/09/24 07:41:54;;;;;;;82.43;30.73;;;13.80;99.90;;;;;;5046256;28;20636;-84
2022/09/24 07:44:24;;;;;;;78.83;29.30;;;13.80;99.90;;;;;;5046068;28;20408;-84
2022/09/24 07:46:50;;;;;;;80.67;33.63;;;13.70;99.90;;;;;;5046593;28;20233;-83
2022/09/24 07:49:16;;;;;;;78.70;32.20;;;13.80;99.90;;;;;;5046349;28;20432;-83
2022/09/24 07:51:42;;;;;;;80.47;32.83;;;13.90;99.90;;;;;;5046557;28;20200;-84
2022/09/24 07:54:09;;;;;;;81.50;37.20;;;13.90;99.90;;;;;;5046387;28;20435;-83
2022/09/24 07:56:35;;;;;;;79.83;32.50;;;13.90;99.90;;;;;;5046504;28;20447;-84
2022/09/24 07:59:00;;;;;;;74.63;21.00;;;14.00;99.90;;;;;;5028535;28;20993;-84
2022/09/24 08:01:26;;;;;;;77.37;24.40;;;13.90;99.90;;;;;;5046275;28;20907;-83
2022/09/24 08:03:52;;;;;;;78.27;25.97;;;14.00;99.90;;;;;;5046732;28;20171;-84
2022/09/24 08:06:22;;;;;;;83.77;29.80;;;14.10;99.90;;;;;;5029325;28;20173;-84
2022/09/24 08:08:51;;;;;;;77.57;27.83;;;14.00;99.90;;;;;;5047063;28;20416;-83
2022/09/24 08:11:17;;;;;;;82.50;26.30;;;14.10;99.90;;;;;;5046423;28;20411;-83
2022/09/24 08:13:44;;;;;;;76.20;27.27;;;14.10;99.90;;;;;;5046492;28;20464;-83
2022/09/24 08:16:10;;;;;;;75.20;20.33;;;14.20;99.90;;;;;;5046813;28;20510;-83
2022/09/24 08:18:36;;;;;;;74.87;20.10;;;14.30;99.90;;;;;;5045889;28;20415;-83
2022/09/24 08:21:10;;;;;;;77.27;20.00;;;14.40;99.90;;;;;;5044719;28;20423;-83
2022/09/24 08:23:38;;;;;;;76.47;18.37;;;14.50;99.90;;;;;;5045079;28;20156;-83
2022/09/24 08:26:04;;;;;;;71.83;15.80;;;14.70;99.90;;;;;;5045222;28;20400;-83
2022/09/24 08:28:31;;;;;;;73.87;15.93;;;14.90;99.90;;;;;;5048016;28;20503;-84
2022/09/24 08:30:59;;;;;;;74.50;18.00;;;14.90;99.90;;;;;;5050192;28;20404;-84
2022/09/24 08:33:25;;;;;;;75.40;16.20;;;14.90;99.90;;;;;;5049098;28;20405;-84
2022/09/24 08:35:51;;;;;;;75.50;17.37;;;15.00;99.90;;;;;;5049191;28;20468;-84
2022/09/24 08:38:19;;;;;;;76.33;16.37;;;15.00;99.90;;;;;;5047451;28;20456;-84
2022/09/24 08:41:06;;;;;;;73.93;15.40;;;15.20;99.90;;;;;;5045105;28;20168;-84
2022/09/24 08:44:04;;;;;;;74.30;14.03;;;15.40;99.90;;;;;;5029281;28;20482;-84
2022/09/24 08:49:37;;;;;;;73.17;14.93;;;15.40;99.90;;;;;;5048064;28;20388;-84
2022/09/24 08:52:23;;;;;;;74.00;15.00;;;15.40;99.90;;;;;;5046694;28;20391;-84
2022/09/24 08:54:49;;;;;;;75.87;15.60;;;15.40;99.90;;;;;;5030063;28;20431;-84
2022/09/24 08:57:17;;;;;;;78.80;17.00;;;15.60;99.90;;;;;;5047443;28;20452;-84
2022/09/24 08:59:50;;;;;;;75.47;14.63;;;15.70;99.90;;;;;;5048297;28;20396;-84
2022/09/24 09:02:46;;;;;;;76.00;14.80;;;15.90;99.90;;;;;;5048744;28;20391;-84
2022/09/24 09:05:41;;;;;;;76.57;15.30;;;16.00;99.90;;;;;;5031100;28;20556;-84
2022/09/24 09:08:20;;;;;;;74.80;13.87;;;15.90;99.90;;;;;;5046065;28;20503;-84
2022/09/24 09:10:57;;;;;;;74.03;13.20;;;15.90;99.90;;;;;;5048738;28;20389;-84
2022/09/24 09:13:37;;;;;;;78.00;14.80;;;16.00;99.90;;;;;;5048068;28;20417;-84
2022/09/24 09:16:21;;;;;;;74.43;13.00;;;15.90;99.90;;;;;;5048098;28;20418;-84
2022/09/24 09:18:49;;;;;;;74.97;13.33;;;16.20;99.90;;;;;;5031308;28;20431;-84
2022/09/24 09:21:21;;;;;;;73.07;11.87;;;16.30;99.90;;;;;;5031181;28;20396;-84
2022/09/24 09:23:49;;;;;;;76.00;12.80;;;16.30;99.90;;;;;;5049033;28;20397;-84
2022/09/24 09:26:17;;;;;;;73.10;12.87;;;16.50;99.90;;;;;;5048767;28;20389;-84
2022/09/24 09:28:44;;;;;;;78.70;13.17;;;16.50;99.90;;;;;;5048518;28;20748;-83
2022/09/24 09:31:19;;;;;;;80.40;13.80;;;16.80;99.90;;;;;;5048961;28;20454;-84
2022/09/24 09:33:53;;;;;;;74.83;13.17;;;16.70;99.90;;;;;;5031700;28;20438;-84
2022/09/24 09:36:52;;;;;;;76.87;14.70;;;16.60;99.90;;;;;;5048826;28;20380;-84
2022/09/24 09:39:59;;;;;;;77.93;13.20;;;16.60;99.90;;;;;;5048689;28;20496;-83
2022/09/24 09:42:35;;;;;;;77.67;13.87;;;16.80;99.90;;;;;;5032416;28;20414;-83
2022/09/24 09:45:31;;;;;;;77.50;15.93;;;17.00;99.90;;;;;;5048653;28;20422;-84
2022/09/24 09:47:59;;;;;;;80.23;16.50;;;16.90;99.90;;;;;;5048856;28;20513;-84
2022/09/24 09:50:49;;;;;;;79.27;15.50;;;16.90;99.90;;;;;;5049224;28;20415;-83
2022/09/24 09:53:21;;;;;;;76.70;14.13;;;16.90;99.90;;;;;;5046554;28;20430;-83
2022/09/24 09:55:56;;;;;;;76.83;14.57;;;16.70;99.90;;;;;;5030649;28;20413;-83
2022/09/24 09:58:26;;;;;;;89.70;16.60;;;16.70;99.90;;;;;;5048768;28;20593;-83
2022/09/24 10:01:07;;;;;;;79.63;14.47;;;16.80;99.90;;;;;;5046881;28;20380;-83
2022/09/24 10:03:54;;;;;;;82.80;14.00;;;17.00;99.90;;;;;;5047085;28;20383;-83
2022/09/24 10:06:26;;;;;;;78.07;14.07;;;17.40;99.90;;;;;;5048315;28;20381;-83
2022/09/24 10:08:53;;;;;;;81.33;13.90;;;17.50;99.90;;;;;;5030709;28;20501;-84
2022/09/24 10:11:21;;;;;;;76.00;12.70;;;17.20;99.90;;;;;;5047966;28;20422;-84
2022/09/24 10:13:59;;;;;;;76.53;13.40;;;17.20;99.90;;;;;;5029539;28;20428;-84
2022/09/24 10:16:25;;;;;;;79.50;13.60;;;17.20;99.90;;;;;;5047199;28;20400;-84
2022/09/24 10:18:51;;;;;;;87.50;13.10;;;17.30;99.90;;;;;;5047313;28;20484;-84
2022/09/24 10:21:33;;;;;;;76.80;14.43;;;17.40;99.90;;;;;;5048235;28;20660;-84
2022/09/24 10:24:01;;;;;;;78.60;15.10;;;17.40;99.90;;;;;;5030432;28;20248;-84
2022/09/24 10:26:42;;;;;;;80.77;16.20;;;17.20;99.90;;;;;;5030466;28;20969;-84
2022/09/24 10:32:13;;;;;;;78.20;13.57;;;17.00;99.90;;;;;;5047850;28;20379;-84
2022/09/24 10:34:39;;;;;;;85.40;15.43;;;17.10;99.90;;;;;;5047060;28;20385;-86
2022/09/24 10:37:14;;;;;;;80.43;14.63;;;17.10;99.90;;;;;;5044563;28;20455;-84
2022/09/24 10:39:40;;;;;;;81.83;15.57;;;16.80;99.90;;;;;;5030177;28;20157;-84
2022/09/24 10:42:22;;;;;;;78.83;15.23;;;16.90;99.90;;;;;;5048129;28;20407;-84
2022/09/24 10:44:49;;;;;;;77.90;16.03;;;16.90;99.90;;;;;;5047731;28;20461;-84
2022/09/24 10:47:24;;;;;;;79.37;16.37;;;16.80;99.90;;;;;;5029958;28;20439;-84
2022/09/24 10:49:59;;;;;;;80.80;15.07;;;16.80;99.90;;;;;;5030075;28;20481;-84
2022/09/24 10:52:31;;;;;;;78.20;15.57;;;16.90;99.90;;;;;;5047359;28;20437;-84
2022/09/24 10:55:15;;;;;;;79.97;16.30;;;17.00;99.90;;;;;;5103526;22;20492;-82
2022/09/24 10:58:07;;;;;;;79.60;14.80;;;16.80;99.90;;;;;;5049072;28;20466;-82
2022/09/24 11:00:47;;;;;;;77.83;14.43;;;16.80;99.90;;;;;;5035015;28;20388;-82
2022/09/24 11:03:25;;;;;;;83.67;16.80;;;16.90;99.90;;;;;;5035009;28;20743;-82
2022/09/24 11:06:20;;;;;;;79.90;14.50;;;17.10;99.90;;;;;;5034975;28;20404;-82
2022/09/24 11:09:08;;;;;;;74.10;12.10;;;17.20;99.90;;;;;;5019609;28;20532;-82
2022/09/24 11:11:57;;;;;;;81.80;13.37;;;17.20;99.90;;;;;;5016615;28;20514;-82
2022/09/24 11:14:51;;;;;;;79.57;14.03;;;17.20;99.90;;;;;;5015718;28;20412;-82
2022/09/24 11:17:41;;;;;;;78.97;14.57;;;17.30;99.90;;;;;;5035063;28;20818;-82
2022/09/24 11:20:09;;;;;;;78.07;15.27;;;17.40;99.90;;;;;;5034538;28;20383;-82
2022/09/24 11:23:03;;;;;;;78.50;14.30;;;17.40;99.90;;;;;;5033460;28;20446;-82
2022/09/24 11:25:51;;;;;;;83.60;15.00;;;17.40;99.90;;;;;;5034772;28;20395;-82
2022/09/24 11:28:45;;;;;;;75.90;13.30;;;17.40;99.90;;;;;;5033211;28;20968;-82
2022/09/24 11:31:22;;;;;;;81.10;14.20;;;17.40;99.90;;;;;;5034626;28;20458;-82
2022/09/24 11:34:14;;;;;;;82.30;15.23;;;17.30;99.90;;;;;;5034426;28;20494;-82
2022/09/24 11:36:58;;;;;;;81.27;14.83;;;17.40;99.90;;;;;;5015661;28;20859;-82
2022/09/24 11:39:41;;;;;;;76.73;14.07;;;17.40;99.90;;;;;;5034196;28;20453;-82
2022/09/24 11:42:30;;;;;;;82.50;16.57;;;17.30;99.90;;;;;;5034522;28;20465;-82
2022/09/24 11:45:33;;;;;;;82.13;16.43;;;17.30;99.90;;;;;;5034646;28;20433;-82
2022/09/24 11:48:02;;;;;;;91.63;17.40;;;17.20;99.90;;;;;;5034325;28;20449;-81
2022/09/24 11:50:54;;;;;;;82.57;15.13;;;17.20;99.90;;;;;;5034277;28;20408;-82
2022/09/24 11:53:38;;;;;;;80.07;14.63;;;17.40;99.90;;;;;;5034346;28;20515;-82
2022/09/24 11:56:28;;;;;;;81.73;16.03;;;17.50;99.90;;;;;;5016407;28;20396;-82
2022/09/24 11:59:17;;;;;;;82.80;14.90;;;17.60;99.90;;;;;;5016342;28;20464;-82
2022/09/24 12:01:53;;;;;;;84.10;17.03;;;17.70;99.90;;;;;;5035858;28;20786;-81
2022/09/24 12:04:26;;;;;;;87.00;16.93;;;17.70;96.30;;;;;;5038112;28;20376;-82
2022/09/24 12:07:04;;;;;;;86.43;17.70;;;17.70;96.60;;;;;;5038241;28;20448;-82
2022/09/24 12:09:44;;;;;;;87.40;17.77;;;17.70;96.10;;;;;;5038722;28;20407;-82
2022/09/24 12:12:33;;;;;;;90.33;19.37;;;17.90;96.50;;;;;;5038076;28;20411;-82
2022/09/24 12:15:17;;;;;;;83.27;16.67;;;17.90;94.70;;;;;;5037485;28;20411;-82
2022/09/24 12:17:57;;;;;;;81.53;14.10;;;18.00;88.10;;;;;;5020338;28;20495;-82
2022/09/24 12:20:27;;;;;;;79.70;13.43;;;17.70;86.60;;;;;;5036808;28;20926;-82
2022/09/24 12:23:01;;;;;;;77.70;12.70;;;17.90;88.90;;;;;;5037712;28;20899;-82
2022/09/24 12:25:32;;;;;;;79.83;15.20;;;18.10;86.80;;;;;;5020447;28;20909;-82
2022/09/24 12:28:00;;;;;;;83.80;11.27;;;18.30;88.50;;;;;;5020033;28;20423;-82
2022/09/24 12:33:58;;;;;;;77.20;11.20;;;18.50;53.90;;;;;;5037662;28;20380;-82
2022/09/24 12:36:39;;;;;;;76.53;11.50;;;18.10;57.50;;;;;;5016560;28;20416;-82
2022/09/24 12:39:12;;;;;;;75.40;10.17;;;18.00;56.50;;;;;;5037313;28;20473;-82
2022/09/24 12:41:48;;;;;;;76.60;10.57;;;17.80;58.00;;;;;;5037646;28;20392;-81
2022/09/24 12:44:20;;;;;;;76.07;11.67;;;17.60;65.30;;;;;;5019532;28;20406;-82
2022/09/24 12:46:57;;;;;;;78.40;10.17;;;17.70;65.80;;;;;;5037406;28;20875;-82
2022/09/24 12:49:26;;;;;;;78.43;11.47;;;17.90;70.00;;;;;;5019657;28;20777;-82
2022/09/24 12:51:58;;;;;;;77.03;11.50;;;17.80;64.30;;;;;;5037295;28;20938;-82
2022/09/24 12:54:34;;;;;;;74.63;10.47;;;17.90;68.20;;;;;;5037036;28;20443;-82
2022/09/24 12:57:13;;;;;;;78.47;11.80;;;17.90;63.10;;;;;;5037176;28;20434;-81
2022/09/24 12:59:56;;;;;;;76.13;11.33;;;17.90;65.50;;;;;;5037063;28;20423;-81
2022/09/24 13:02:24;;;;;;;75.13;11.27;;;17.90;68.50;;;;;;5037238;28;20406;-82
2022/09/24 13:05:15;;;;;;;75.97;11.30;;;17.90;70.40;;;;;;5037327;28;20438;-82
2022/09/24 13:07:41;;;;;;;75.33;10.33;;;17.90;69.90;;;;;;5037146;28;20420;-81